Terminal Aerodrome Forecast
Issued by NWS Charleston, SC

Current Version | Previous Version | Text Only | Print | Product List | Glossary On
Versions: 1 2 3 4 5 6 7 8 9 10 11 12 13 14 15 16
000
FTUS42 KCHS 021700
TAFCHS
TAF
KCHS 021739Z 0218/0318 18010KT P6SM VCTS SCT035CB BKN250
     FM022300 20005KT P6SM FEW150 SCT250=

USA.gov is the U.S. government's official web portal to all federal, state and local government web resources and services.